Time,TemperatureF,DewpointF,PressureIn,WindDirection,WindDirectionDegrees,WindSpeedMPH,WindSpeedGustMPH,Humidity,HourlyPrecipIn,Conditions,Clouds,dailyrainin,SoftwareType,DateUTC
2013-09-06 00:06:00,68.0,53.0,30.03,NE,44,8.0,-999.0,59,-99.99,,,0.00,weatherlink.com 1.10,2013-09-05 21:06:00,
2013-09-06 00:21:00,68.0,53.0,30.03,ENE,69,6.0,-999.0,60,-99.99,,,0.00,weatherlink.com 1.10,2013-09-05 21:21:00,
2013-09-06 00:37:00,68.0,54.0,30.03,ENE,74,8.0,-999.0,61,-99.99,,,0.00,weatherlink.com 1.10,2013-09-05 21:37:00,
2013-09-06 00:52:00,67.9,54.0,30.03,NE,43,10.0,-999.0,62,-99.99,,,0.00,weatherlink.com 1.10,2013-09-05 21:52:00,
2013-09-06 01:07:00,67.8,55.0,30.03,East,92,8.0,-999.0,63,-99.99,,,0.00,weatherlink.com 1.10,2013-09-05 22:07:00,
2013-09-06 01:22:00,67.6,55.0,30.03,ENE,59,12.0,-999.0,64,-99.99,,,0.00,weatherlink.com 1.10,2013-09-05 22:22:00,
2013-09-06 01:37:00,67.4,55.0,30.02,NE,44,14.0,-999.0,65,-99.99,,,0.00,weatherlink.com 1.10,2013-09-05 22:37:00,
2013-09-06 01:52:00,67.3,55.0,30.02,NE,53,5.0,-999.0,65,-99.99,,,0.00,weatherlink.com 1.10,2013-09-05 22:52:00,
2013-09-06 02:07:00,67.3,55.0,30.02,NE,44,6.0,-999.0,65,-99.99,,,0.00,weatherlink.com 1.10,2013-09-05 23:07:00,
2013-09-06 02:22:00,67.0,55.0,30.02,ENE,59,7.0,-999.0,66,-99.99,,,0.00,weatherlink.com 1.10,2013-09-05 23:22:00,
2013-09-06 02:37:00,66.9,56.0,30.01,East,84,8.0,-999.0,67,-99.99,,,0.00,weatherlink.com 1.10,2013-09-05 23:37:00,
2013-09-06 02:52:00,66.9,56.0,30.01,NE,55,7.0,-999.0,67,-99.99,,,0.00,weatherlink.com 1.10,2013-09-05 23:52:00,
2013-09-06 03:07:00,66.9,56.0,30.00,ENE,69,14.0,-999.0,67,-99.99,,,0.00,weatherlink.com 1.10,2013-09-06 00:07:00,
2013-09-06 03:22:00,66.9,56.0,30.00,ENE,64,12.0,-999.0,67,-99.99,,,0.00,weatherlink.com 1.10,2013-09-06 00:22:00,
2013-09-06 03:37:00,66.7,55.0,30.00,NE,55,11.0,-999.0,67,-99.99,,,0.00,weatherlink.com 1.10,2013-09-06 00:37:00,
2013-09-06 03:52:00,66.7,55.0,29.99,NE,43,5.0,-999.0,67,-99.99,,,0.00,weatherlink.com 1.10,2013-09-06 00:52:00,
2013-09-06 04:07:00,66.5,55.0,29.99,NE,40,0.0,-999.0,67,-99.99,,,0.00,weatherlink.com 1.10,2013-09-06 01:07:00,
2013-09-06 04:22:00,66.4,55.0,29.98,ENE,57,1.0,-999.0,68,-99.99,,,0.00,weatherlink.com 1.10,2013-09-06 01:22:00,
2013-09-06 04:37:00,66.5,56.0,29.98,NE,37,7.0,-999.0,68,-99.99,,,0.00,weatherlink.com 1.10,2013-09-06 01:37:00,
2013-09-06 04:52:00,66.5,56.0,29.97,NE,56,8.0,-999.0,68,-99.99,,,0.00,weatherlink.com 1.10,2013-09-06 01:52:00,
2013-09-06 05:07:00,66.4,55.0,29.97,East,82,6.0,-999.0,67,-99.99,,,0.00,weatherlink.com 1.10,2013-09-06 02:07:00,
2013-09-06 05:22:00,66.1,55.0,29.96,NE,50,6.0,-999.0,68,-99.99,,,0.00,weatherlink.com 1.10,2013-09-06 02:22:00,
2013-09-06 05:37:00,66.0,55.0,29.96,NE,51,7.0,-999.0,68,-99.99,,,0.00,weatherlink.com 1.10,2013-09-06 02:37:00,
2013-09-06 05:52:00,66.0,55.0,29.97,ENE,66,2.0,-999.0,67,-99.99,,,0.00,weatherlink.com 1.10,2013-09-06 02:52:00,
2013-09-06 06:07:00,65.9,54.0,29.97,ENE,60,10.0,-999.0,66,-99.99,,,0.00,weatherlink.com 1.10,2013-09-06 03:07:00,
2013-09-06 06:22:00,66.2,54.0,29.96,NE,46,3.0,-999.0,66,-99.99,,,0.00,weatherlink.com 1.10,2013-09-06 03:22:00,
2013-09-06 06:37:00,66.1,55.0,29.97,ENE,74,4.0,-999.0,68,-99.99,,,0.00,weatherlink.com 1.10,2013-09-06 03:37:00,
2013-09-06 06:52:00,65.7,56.0,29.97,East,90,1.0,-999.0,70,-99.99,,,0.00,weatherlink.com 1.10,2013-09-06 03:52:00,
2013-09-06 07:07:00,66.1,57.0,29.97,ENE,57,3.0,-999.0,73,-99.99,,,0.00,weatherlink.com 1.10,2013-09-06 04:07:00,
2013-09-06 07:22:00,66.8,58.0,29.97,ENE,65,0.0,-999.0,73,-99.99,,,0.00,weatherlink.com 1.10,2013-09-06 04:22:00,
2013-09-06 07:37:00,67.6,58.0,29.97,NE,53,2.0,-999.0,72,-99.99,,,0.00,weatherlink.com 1.10,2013-09-06 04:37:00,
2013-09-06 07:52:00,68.4,58.0,29.97,ENE,63,2.0,-999.0,70,-99.99,,,0.00,weatherlink.com 1.10,2013-09-06 04:52:00,
2013-09-06 08:07:00,69.2,58.0,29.97,ENE,61,3.0,-999.0,67,-99.99,,,0.00,weatherlink.com 1.10,2013-09-06 05:07:00,
2013-09-06 08:22:00,70.0,58.0,29.98,ESE,102,9.0,-999.0,65,-99.99,,,0.00,weatherlink.com 1.10,2013-09-06 05:22:00,
2013-09-06 08:38:00,70.8,58.0,29.97,NE,42,1.0,-999.0,64,-99.99,,,0.00,weatherlink.com 1.10,2013-09-06 05:38:00,
2013-09-06 08:53:00,71.6,57.0,29.98,East,100,2.0,-999.0,60,-99.99,,,0.00,weatherlink.com 1.10,2013-09-06 05:53:00,
2013-09-06 10:40:00,73.2,59.0,30.00,SW,225,2.0,-999.0,62,-99.99,,,0.00,weatherlink.com 1.10,2013-09-06 07:40:00,
2013-09-06 10:53:00,73.4,59.0,30.00,SSW,196,1.0,-999.0,62,-99.99,,,0.00,weatherlink.com 1.10,2013-09-06 07:53:00,
2013-09-06 11:08:00,73.2,60.0,29.99,South,190,7.0,-999.0,63,-99.99,,,0.00,weatherlink.com 1.10,2013-09-06 08:08:00,
2013-09-06 11:23:00,73.4,59.0,30.00,SW,214,6.0,-999.0,62,-99.99,,,0.00,weatherlink.com 1.10,2013-09-06 08:23:00,
2013-09-06 11:38:00,73.1,60.0,29.99,SSW,213,2.0,-999.0,64,-99.99,,,0.00,weatherlink.com 1.10,2013-09-06 08:38:00,
2013-09-06 11:53:00,74.8,61.0,29.99,SSW,192,2.0,-999.0,62,-99.99,,,0.00,weatherlink.com 1.10,2013-09-06 08:53:00,
2013-09-06 12:08:00,74.0,61.0,29.99,SSW,211,6.0,-999.0,64,-99.99,,,0.00,weatherlink.com 1.10,2013-09-06 09:08:00,
2013-09-06 12:23:00,73.9,60.0,29.98,West,261,4.0,-999.0,63,-99.99,,,0.00,weatherlink.com 1.10,2013-09-06 09:23:00,
2013-09-06 12:38:00,74.7,61.0,29.99,SW,225,2.0,-999.0,63,-99.99,,,0.00,weatherlink.com 1.10,2013-09-06 09:38:00,
2013-09-06 12:53:00,75.8,61.0,29.98,SSW,205,4.0,-999.0,61,-99.99,,,0.00,weatherlink.com 1.10,2013-09-06 09:53:00,
2013-09-06 13:08:00,76.5,60.0,29.98,SSE,161,2.0,-999.0,56,-99.99,,,0.00,weatherlink.com 1.10,2013-09-06 10:08:00,
2013-09-06 13:23:00,75.6,60.0,29.98,South,190,4.0,-999.0,58,-99.99,,,0.00,weatherlink.com 1.10,2013-09-06 10:23:00,
2013-09-06 13:38:00,74.9,59.0,29.98,South,182,5.0,-999.0,59,-99.99,,,0.00,weatherlink.com 1.10,2013-09-06 10:38:00,
2013-09-06 13:53:00,75.5,60.0,29.98,SW,219,3.0,-999.0,58,-99.99,,,0.00,weatherlink.com 1.10,2013-09-06 10:53:00,
2013-09-06 14:08:00,76.3,60.0,29.98,SW,219,4.0,-999.0,57,-99.99,,,0.00,weatherlink.com 1.10,2013-09-06 11:08:00,
2013-09-06 14:23:00,75.5,58.0,29.97,SSW,196,10.0,-999.0,55,-99.99,,,0.00,weatherlink.com 1.10,2013-09-06 11:23:00,
2013-09-06 14:38:00,75.6,58.0,29.97,SW,222,4.0,-999.0,55,-99.99,,,0.00,weatherlink.com 1.10,2013-09-06 11:38:00,
2013-09-06 14:53:00,76.5,59.0,29.97,SSW,210,1.0,-999.0,55,-99.99,,,0.00,weatherlink.com 1.10,2013-09-06 11:53:00,
2013-09-06 15:09:00,76.3,59.0,29.96,SSW,209,2.0,-999.0,56,-99.99,,,0.00,weatherlink.com 1.10,2013-09-06 12:09:00,
2013-09-06 15:23:00,76.1,58.0,29.96,SSW,202,6.0,-999.0,54,-99.99,,,0.00,weatherlink.com 1.10,2013-09-06 12:23:00,
2013-09-06 15:38:00,76.1,59.0,29.96,SW,230,6.0,-999.0,56,-99.99,,,0.00,weatherlink.com 1.10,2013-09-06 12:38:00,
2013-09-06 15:53:00,76.3,58.0,29.95,SW,214,6.0,-999.0,54,-99.99,,,0.00,weatherlink.com 1.10,2013-09-06 12:53:00,
2013-09-06 16:08:00,76.9,59.0,29.95,SSW,195,4.0,-999.0,55,-99.99,,,0.00,weatherlink.com 1.10,2013-09-06 13:08:00,
2013-09-06 16:23:00,76.6,59.0,29.95,South,184,4.0,-999.0,54,-99.99,,,0.00,weatherlink.com 1.10,2013-09-06 13:23:00,
2013-09-06 16:38:00,77.7,59.0,29.95,South,184,5.0,-999.0,52,-99.99,,,0.00,weatherlink.com 1.10,2013-09-06 13:38:00,
2013-09-06 16:53:00,77.5,58.0,29.95,SW,217,4.0,-999.0,51,-99.99,,,0.00,weatherlink.com 1.10,2013-09-06 13:53:00,
2013-09-06 17:08:00,77.5,58.0,29.95,WSW,242,6.0,-999.0,51,-99.99,,,0.00,weatherlink.com 1.10,2013-09-06 14:08:00,
2013-09-06 17:23:00,77.2,55.0,29.95,SSW,195,4.0,-999.0,47,-99.99,,,0.00,weatherlink.com 1.10,2013-09-06 14:23:00,
2013-09-06 17:38:00,77.6,55.0,29.95,SSW,207,2.0,-999.0,46,-99.99,,,0.00,weatherlink.com 1.10,2013-09-06 14:38:00,
2013-09-06 17:53:00,77.1,56.0,29.95,SW,216,4.0,-999.0,48,-99.99,,,0.00,weatherlink.com 1.10,2013-09-06 14:53:00,
2013-09-06 18:08:00,76.3,55.0,29.95,SW,215,2.0,-999.0,47,-99.99,,,0.00,weatherlink.com 1.10,2013-09-06 15:08:00,
2013-09-06 18:23:00,77.0,55.0,29.95,SW,214,3.0,-999.0,47,-99.99,,,0.00,weatherlink.com 1.10,2013-09-06 15:23:00,
2013-09-06 18:38:00,77.4,55.0,29.95,SW,214,0.0,-999.0,46,-99.99,,,0.00,weatherlink.com 1.10,2013-09-06 15:38:00,
2013-09-06 18:53:00,77.5,56.0,29.95,SW,219,1.0,-999.0,48,-99.99,,,0.00,weatherlink.com 1.10,2013-09-06 15:53:00,
2013-09-06 19:08:00,75.9,55.0,29.95,SW,219,2.0,-999.0,48,-99.99,,,0.00,weatherlink.com 1.10,2013-09-06 16:08:00,
2013-09-06 19:23:00,75.0,57.0,29.95,NE,43,8.0,-999.0,54,-99.99,,,0.00,weatherlink.com 1.10,2013-09-06 16:23:00,
2013-09-06 19:38:00,73.9,57.0,29.96,NE,44,10.0,-999.0,56,-99.99,,,0.00,weatherlink.com 1.10,2013-09-06 16:38:00,
2013-09-06 19:53:00,73.5,57.0,29.96,NE,42,11.0,-999.0,57,-99.99,,,0.00,weatherlink.com 1.10,2013-09-06 16:53:00,
2013-09-06 20:08:00,73.0,57.0,29.96,NE,43,8.0,-999.0,57,-99.99,,,0.00,weatherlink.com 1.10,2013-09-06 17:08:00,
2013-09-06 20:38:00,72.5,57.0,29.98,NE,42,10.0,-999.0,58,-99.99,,,0.00,weatherlink.com 1.10,2013-09-06 17:38:00,
2013-09-06 20:53:00,72.2,57.0,29.98,NE,37,12.0,-999.0,59,-99.99,,,0.00,weatherlink.com 1.10,2013-09-06 17:53:00,
2013-09-06 21:08:00,72.0,57.0,29.99,NNE,26,10.0,-999.0,59,-99.99,,,0.00,weatherlink.com 1.10,2013-09-06 18:08:00,
2013-09-06 21:24:00,71.7,56.0,29.99,NE,44,14.0,-999.0,59,-99.99,,,0.00,weatherlink.com 1.10,2013-09-06 18:24:00,
2013-09-06 21:39:00,71.4,57.0,30.00,NNE,22,8.0,-999.0,60,-99.99,,,0.00,weatherlink.com 1.10,2013-09-06 18:39:00,
2013-09-06 21:54:00,71.2,56.0,30.00,NE,53,10.0,-999.0,60,-99.99,,,0.00,weatherlink.com 1.10,2013-09-06 18:54:00,
2013-09-06 22:09:00,71.2,56.0,30.00,NE,46,8.0,-999.0,59,-99.99,,,0.00,weatherlink.com 1.10,2013-09-06 19:09:00,
2013-09-06 22:24:00,71.1,55.0,30.00,NE,45,14.0,-999.0,57,-99.99,,,0.00,weatherlink.com 1.10,2013-09-06 19:24:00,
2013-09-06 22:39:00,71.3,55.0,30.00,NE,39,4.0,-999.0,56,-99.99,,,0.00,weatherlink.com 1.10,2013-09-06 19:39:00,
2013-09-06 22:54:00,71.4,54.0,30.00,NE,47,8.0,-999.0,54,-99.99,,,0.00,weatherlink.com 1.10,2013-09-06 19:54:00,
2013-09-06 23:09:00,71.5,53.0,30.00,NE,51,12.0,-999.0,53,-99.99,,,0.00,weatherlink.com 1.10,2013-09-06 20:09:00,
2013-09-06 23:24:00,71.6,53.0,30.00,NE,44,3.0,-999.0,52,-99.99,,,0.00,weatherlink.com 1.10,2013-09-06 20:24:00,
2013-09-06 23:39:00,71.7,53.0,30.00,NE,48,7.0,-999.0,52,-99.99,,,0.00,weatherlink.com 1.10,2013-09-06 20:39:00,
2013-09-06 23:54:00,71.4,53.0,30.00,NNE,28,12.0,-999.0,52,-99.99,,,0.00,weatherlink.com 1.10,2013-09-06 20:54:00,